createdAt,value
2023-01-29T11:24:42.393Z,2.80
2023-01-29T11:25:12.829Z,2.60
2023-01-29T11:25:43.810Z,3.00
2023-01-29T11:26:14.979Z,3.10
2023-01-29T11:26:45.461Z,3.30
2023-01-29T11:27:16.491Z,2.80
2023-01-29T11:27:46.917Z,2.50
2023-01-29T11:28:17.831Z,2.80
2023-01-29T11:28:48.859Z,3.00
2023-01-29T11:29:19.564Z,2.70
2023-01-29T11:29:50.144Z,3.40
2023-01-29T11:30:20.705Z,3.30
2023-01-29T11:30:51.309Z,3.20
2023-01-29T11:31:21.970Z,3.30
2023-01-29T11:31:52.416Z,3.30
2023-01-29T11:32:23.117Z,3.20
2023-01-29T11:32:53.695Z,3.30
2023-01-29T11:33:24.171Z,3.90
2023-01-29T11:33:55.163Z,3.50
2023-01-29T11:34:26.104Z,3.50
2023-01-29T11:34:57.028Z,3.00
2023-01-29T11:35:28.191Z,3.10
2023-01-29T11:35:58.672Z,3.10
2023-01-29T11:36:29.665Z,2.90
2023-01-29T11:37:00.555Z,3.00
2023-01-29T11:37:31.476Z,3.20
2023-01-29T11:38:02.429Z,3.00
2023-01-29T11:38:33.607Z,2.90
2023-01-29T11:39:04.086Z,2.70
2023-01-29T11:39:35.062Z,3.10
2023-01-29T11:40:05.994Z,2.80
2023-01-29T11:40:36.890Z,2.70
2023-01-29T11:41:07.794Z,2.80
2023-01-29T11:41:38.857Z,3.00
2023-01-29T11:42:09.364Z,2.60
2023-01-29T11:42:40.258Z,2.60
2023-01-29T11:43:11.158Z,2.90
2023-01-29T11:43:41.890Z,3.10
2023-01-29T11:44:12.794Z,2.60
2023-01-29T11:44:44.008Z,3.10
2023-01-29T11:45:14.498Z,2.90
2023-01-29T11:45:45.401Z,2.40
2023-01-29T11:46:16.399Z,2.90
2023-01-29T11:46:46.946Z,2.60
2023-01-29T11:47:17.557Z,2.70
2023-01-29T11:47:48.151Z,2.90
2023-01-29T11:48:18.653Z,2.90
2023-01-29T11:48:49.551Z,2.70
2023-01-29T11:49:21.089Z,2.80
2023-01-29T11:49:51.043Z,2.80
2023-01-29T11:50:21.975Z,3.10
2023-01-29T11:50:53.158Z,3.10
2023-01-29T11:51:23.660Z,2.70
2023-01-29T11:51:54.096Z,2.90
2023-01-29T11:52:25.100Z,2.80
2023-01-29T11:52:55.779Z,2.90
2023-01-29T11:53:26.678Z,3.00
2023-01-29T11:53:57.780Z,2.70
2023-01-29T11:54:28.247Z,2.80
2023-01-29T11:54:59.343Z,3.10
2023-01-29T11:55:35.260Z,2.60
2023-01-29T11:56:00.644Z,2.50
2023-01-29T11:56:31.724Z,3.20
2023-01-29T11:57:02.168Z,2.60
2023-01-29T11:57:33.180Z,3.00
2023-01-29T11:58:03.652Z,2.80
2023-01-29T11:58:34.538Z,2.60
2023-01-29T11:59:05.466Z,2.70
2023-01-29T11:59:36.654Z,3.00
2023-01-29T12:00:07.092Z,2.80
2023-01-29T12:00:38.031Z,2.80
2023-01-29T12:01:08.959Z,3.20
2023-01-29T12:01:39.835Z,2.90
2023-01-29T12:02:10.723Z,3.10
2023-01-29T12:02:41.896Z,3.10
2023-01-29T12:03:12.359Z,3.00
2023-01-29T12:03:43.284Z,2.80
2023-01-29T12:04:14.263Z,3.30
2023-01-29T12:04:45.200Z,3.10
2023-01-29T12:05:16.174Z,3.00
2023-01-29T12:05:46.953Z,3.40
2023-01-29T12:06:17.339Z,2.70
2023-01-29T12:06:48.311Z,3.20
2023-01-29T12:07:19.204Z,2.60
2023-01-29T12:07:50.123Z,2.80
2023-01-29T12:08:21.082Z,2.60
2023-01-29T12:08:52.319Z,2.90
2023-01-29T12:09:22.840Z,3.10
2023-01-29T12:09:53.300Z,3.00
2023-01-29T12:10:24.205Z,2.60
2023-01-29T12:10:55.199Z,2.60
2023-01-29T12:11:26.114Z,3.10
2023-01-29T12:11:57.234Z,2.90
2023-01-29T12:12:27.735Z,2.80
2023-01-29T12:12:58.649Z,2.70
2023-01-29T12:13:29.568Z,3.10
2023-01-29T12:14:00.534Z,2.70
2023-01-29T12:14:31.520Z,2.80
2023-01-29T12:15:02.391Z,3.00
2023-01-29T12:15:32.934Z,3.20
2023-01-29T12:16:03.595Z,3.00
2023-01-29T12:16:34.034Z,3.00
2023-01-29T12:17:05.131Z,3.00
2023-01-29T12:17:35.763Z,3.10
2023-01-29T12:18:06.592Z,3.50
2023-01-29T12:18:37.205Z,3.30
2023-01-29T12:19:07.838Z,3.10
2023-01-29T12:19:38.358Z,3.00
2023-01-29T12:20:09.438Z,3.20
2023-01-29T12:20:40.071Z,2.90
2023-01-29T12:21:10.697Z,3.40
2023-01-29T12:21:41.253Z,3.30
2023-01-29T12:22:11.855Z,3.20
2023-01-29T12:22:42.348Z,3.60
2023-01-29T12:23:54.309Z,3.30
2023-01-29T12:24:24.791Z,3.00
2023-01-29T12:24:55.754Z,3.10
2023-01-29T12:25:26.593Z,3.50
2023-01-29T12:25:57.551Z,3.70
2023-01-29T12:26:28.777Z,3.30
2023-01-29T12:26:59.260Z,3.30
2023-01-29T12:27:30.229Z,3.00
2023-01-29T12:28:00.736Z,3.40
2023-01-29T12:28:31.700Z,3.50
2023-01-29T12:29:02.633Z,3.30
2023-01-29T12:29:33.836Z,2.80
2023-01-29T12:30:06.339Z,2.90
2023-01-29T12:30:35.282Z,3.10
2023-01-29T12:31:06.290Z,3.20
2023-01-29T12:31:36.904Z,3.10
2023-01-29T12:32:07.329Z,3.30
2023-01-29T12:32:38.482Z,3.20
2023-01-29T12:33:08.957Z,3.10
2023-01-29T12:33:39.976Z,3.40
2023-01-29T12:34:10.435Z,3.30
2023-01-29T12:34:41.388Z,3.00
2023-01-29T12:35:53.326Z,3.00
2023-01-29T12:36:24.326Z,3.20
2023-01-29T12:36:55.232Z,2.60
2023-01-29T12:37:26.206Z,3.30
2023-01-29T12:37:57.173Z,3.30
2023-01-29T12:38:28.321Z,3.10
2023-01-29T12:38:58.811Z,3.30
2023-01-29T12:39:29.799Z,3.50
2023-01-29T12:40:00.786Z,3.60
2023-01-29T12:40:31.295Z,3.50
2023-01-29T12:41:02.208Z,3.20
2023-01-29T12:41:33.495Z,3.70
2023-01-29T12:42:03.931Z,3.40
2023-01-29T12:42:34.981Z,3.40
2023-01-29T12:43:05.859Z,3.50
2023-01-29T12:43:36.271Z,3.70
2023-01-29T12:44:07.159Z,3.30
2023-01-29T12:44:38.210Z,3.20
2023-01-29T12:45:08.734Z,3.10
2023-01-29T12:45:39.226Z,3.30
2023-01-29T12:46:09.741Z,3.70
2023-01-29T12:46:40.729Z,3.50
2023-01-29T12:47:11.221Z,3.10
2023-01-29T12:47:42.413Z,3.50
2023-01-29T12:48:12.952Z,3.50
2023-01-29T12:48:43.860Z,3.30
2023-01-29T12:49:14.761Z,3.20
2023-01-29T12:49:45.697Z,3.50
2023-01-29T12:50:16.904Z,3.30
2023-01-29T12:50:47.758Z,3.30
2023-01-29T12:51:18.249Z,3.60
2023-01-29T12:51:48.751Z,3.60
2023-01-29T12:52:19.673Z,3.20
2023-01-29T12:52:50.672Z,3.00
2023-01-29T12:53:21.289Z,3.60
2023-01-29T12:53:52.015Z,3.20
2023-01-29T12:54:22.448Z,3.00
2023-01-29T12:54:53.437Z,3.30
2023-01-29T12:55:24.337Z,3.20
2023-01-29T12:55:55.243Z,3.10
2023-01-29T12:56:26.146Z,3.20
2023-01-29T12:56:57.288Z,3.20
2023-01-29T12:57:27.775Z,3.30
2023-01-29T12:57:58.668Z,3.40
2023-01-29T12:58:29.671Z,3.30
2023-01-29T12:59:00.140Z,3.30
2023-01-29T12:59:31.194Z,3.20
2023-01-29T13:00:01.841Z,3.10
2023-01-29T13:00:32.325Z,3.10
2023-01-29T13:01:03.393Z,3.20
2023-01-29T13:01:33.984Z,3.40
2023-01-29T13:02:04.500Z,3.60
2023-01-29T13:02:35.011Z,3.10
2023-01-29T13:03:06.225Z,3.00
2023-01-29T13:03:36.779Z,3.30
2023-01-29T13:04:07.191Z,3.10
2023-01-29T13:04:38.221Z,3.30
2023-01-29T13:05:08.614Z,3.10
2023-01-29T13:05:39.585Z,2.90
2023-01-29T13:06:10.804Z,3.40
2023-01-29T13:06:41.278Z,3.20
2023-01-29T13:07:12.365Z,3.60
2023-01-29T13:07:42.846Z,3.20
2023-01-29T23:02:25.170Z,5.40
2023-01-29T23:02:55.652Z,5.70
2023-01-29T23:03:26.622Z,5.10
2023-01-29T23:03:57.763Z,4.80
2023-01-29T23:04:28.358Z,4.90
2023-01-29T23:04:58.816Z,6.00
2023-01-29T23:05:29.824Z,5.50
2023-01-29T23:06:00.843Z,5.60
2023-01-29T23:06:31.301Z,5.70
2023-01-29T23:07:02.521Z,5.40
2023-01-29T23:07:33.070Z,5.00
2023-01-29T23:08:03.596Z,5.50
2023-01-29T23:08:34.074Z,5.90
2023-01-29T23:09:04.602Z,4.90
2023-01-29T23:09:35.140Z,5.70
2023-01-29T23:10:06.574Z,4.80
2023-01-29T23:10:36.342Z,5.40
2023-01-29T23:11:07.078Z,5.50
2023-01-29T23:11:37.778Z,6.20
2023-01-29T23:12:08.455Z,5.40
2023-01-29T23:12:39.140Z,6.40
2023-01-29T23:13:10.027Z,5.50
2023-01-29T23:13:40.583Z,5.50
2023-01-29T23:14:11.304Z,5.00
2023-01-29T23:14:41.990Z,5.10
2023-01-29T23:15:12.717Z,5.50
2023-01-29T23:15:43.442Z,4.50
2023-01-29T23:16:14.440Z,5.40
2023-01-29T23:16:44.907Z,5.10
2023-01-29T23:17:15.996Z,4.50
2023-01-29T23:17:46.753Z,5.30
2023-01-29T23:18:17.436Z,5.30
2023-01-29T23:19:28.977Z,5.00
2023-01-29T23:19:59.499Z,4.50
2023-01-29T23:20:29.959Z,5.00
2023-01-29T23:21:01.139Z,5.50
2023-01-29T23:21:31.672Z,5.50
2023-01-29T23:22:02.700Z,5.50
2023-01-29T23:22:32.755Z,5.60
2023-01-29T23:23:03.377Z,5.00
2023-01-29T23:23:34.100Z,4.90
2023-01-29T23:24:04.784Z,5.20
2023-01-29T23:24:35.293Z,5.50
2023-01-29T23:25:06.576Z,4.60
2023-01-29T23:25:37.083Z,4.60
2023-01-29T23:26:07.760Z,5.10
2023-01-29T23:26:38.524Z,5.00
2023-01-29T23:27:09.172Z,4.80
2023-01-29T23:27:39.854Z,5.40
2023-01-29T23:28:10.712Z,5.30
2023-01-29T23:29:22.234Z,4.80
2023-01-29T23:29:52.801Z,4.50
2023-01-29T23:31:04.563Z,5.20
2023-01-29T23:31:35.505Z,5.00
2023-01-29T23:32:06.230Z,5.00
2023-01-29T23:32:36.837Z,4.60
2023-01-29T23:33:07.508Z,5.00
2023-01-29T23:33:38.197Z,4.80
2023-01-29T23:34:08.775Z,5.00
2023-01-29T23:34:39.372Z,5.10
2023-01-29T23:35:10.181Z,4.90
2023-01-29T23:35:40.867Z,5.70
2023-01-29T23:36:11.530Z,5.70
2023-01-29T23:36:42.446Z,5.30
2023-01-29T23:37:13.200Z,5.30
2023-01-29T23:37:43.854Z,5.50
2023-01-29T23:38:14.573Z,6.10
2023-01-29T23:38:45.278Z,4.50
2023-01-29T23:39:56.845Z,5.10
2023-01-29T23:40:27.286Z,5.40
2023-01-29T23:40:58.226Z,5.40
2023-01-29T23:41:29.177Z,5.50
2023-01-29T23:42:00.188Z,5.20
2023-01-29T23:42:31.355Z,5.10
2023-01-29T23:43:01.840Z,5.20
2023-01-29T23:43:32.883Z,5.40
2023-01-29T23:44:03.540Z,5.50
2023-01-29T23:44:34.234Z,4.80
2023-01-29T23:45:04.778Z,5.20
2023-01-29T23:45:35.586Z,5.20
2023-01-29T23:46:06.183Z,5.60
2023-01-29T23:46:36.923Z,4.90
2023-01-29T23:47:07.642Z,4.80
2023-01-29T23:47:38.323Z,5.30
2023-01-29T23:48:08.983Z,5.40
2023-01-29T23:48:39.839Z,5.10
2023-01-29T23:49:10.485Z,4.60
2023-01-29T23:49:41.228Z,5.50
2023-01-29T23:50:11.824Z,4.80
2023-01-29T23:50:42.347Z,5.00
2023-01-29T23:51:12.963Z,5.60
2023-01-29T23:51:43.621Z,5.40
2023-01-29T23:52:14.191Z,4.60
2023-01-29T23:52:44.791Z,5.50
2023-01-29T23:53:15.480Z,5.00
2023-01-29T23:53:46.017Z,5.40
2023-01-29T23:54:16.633Z,5.10
2023-01-29T23:54:47.425Z,5.00
2023-01-29T23:55:18.120Z,5.00
2023-01-29T23:55:48.789Z,5.20
2023-01-29T23:56:19.279Z,5.10
2023-01-29T23:56:50.403Z,5.20
2023-01-29T23:58:02.149Z,5.50
2023-01-29T23:58:32.628Z,4.60
2023-01-29T23:59:03.580Z,5.40
2023-01-29T23:59:34.649Z,4.80
